Time;durP1;ratioP1;P1;durP2;ratioP2;P2;SDS_P1;SDS_P2;PMS_P1;PMS_P2;Temp;Humidity;BMP_temperature;BMP_pressure;BME280_temperature;BME280_humidity;BME280_pressure;Samples;Min_cycle;Max_cycle;Signal;HPM_P1;HPM_P2
2024/03/14 00:00:29;;;;;;;;;;;;;;;22.70;37.38;101181.09;4099346;28;19927;-63
2024/03/14 00:02:31;;;;;;;;;;;;;;;22.68;37.52;101183.03;4100188;28;19923;-64
2024/03/14 00:04:33;;;;;;;;;;;;;;;22.69;37.58;101175.88;4100099;28;19929;-64
2024/03/14 00:06:36;;;;;;;;;;;;;;;22.69;37.27;101173.19;4100108;28;20308;-64
2024/03/14 00:08:38;;;;;;;;;;;;;;;22.68;37.25;101169.63;4099740;28;19923;-63
2024/03/14 00:10:40;;;;;;;;;;;;;;;22.68;37.37;101168.78;4098661;28;19929;-64
2024/03/14 00:12:41;;;;;;;;;;;;;;;22.65;37.65;101168.06;4100028;28;20408;-64
2024/03/14 00:14:50;;;;;;;;;;;;;;;22.67;37.65;101169.78;4099869;28;19922;-64
2024/03/14 00:16:52;;;;;;;;;;;;;;;22.70;37.52;101177.53;4100199;28;19922;-64
2024/03/14 00:18:53;;;;;;;;;;;;;;;22.72;37.35;101167.56;4098770;29;19922;-64
2024/03/14 00:20:55;;;;;;;;;;;;;;;22.70;37.45;101162.34;4098813;29;19933;-64
2024/03/14 00:22:58;;;;;;;;;;;;;;;22.70;37.12;101154.28;4099782;28;19962;-62
2024/03/14 00:24:59;;;;;;;;;;;;;;;22.69;37.32;101163.31;4099780;28;19922;-64
2024/03/14 00:27:03;;;;;;;;;;;;;;;22.69;37.51;101159.78;4099797;28;20390;-65
2024/03/14 00:29:05;;;;;;;;;;;;;;;22.67;37.57;101159.88;4099729;28;19922;-64
2024/03/14 00:31:06;;;;;;;;;;;;;;;22.64;37.65;101155.63;4099835;28;19923;-63
2024/03/14 00:33:08;;;;;;;;;;;;;;;22.63;37.62;101161.13;4099484;28;20025;-64
2024/03/14 00:35:12;;;;;;;;;;;;;;;22.62;37.60;101154.88;4099801;28;19926;-63
2024/03/14 00:37:14;;;;;;;;;;;;;;;22.61;37.52;101155.88;4099744;28;19930;-63
2024/03/14 00:39:16;;;;;;;;;;;;;;;22.61;37.65;101155.00;4099269;28;19934;-63
2024/03/14 00:41:19;;;;;;;;;;;;;;;22.63;37.28;101159.28;4099660;28;19932;-64
2024/03/14 00:43:24;;;;;;;;;;;;;;;22.65;37.33;101154.66;4099670;28;19922;-64
2024/03/14 00:45:26;;;;;;;;;;;;;;;22.67;37.52;101148.31;4099954;28;20389;-63
2024/03/14 00:47:27;;;;;;;;;;;;;;;22.68;37.53;101147.34;4099665;28;19922;-63
2024/03/14 00:49:29;;;;;;;;;;;;;;;22.68;37.53;101148.19;4099483;29;19993;-63
2024/03/14 00:51:30;;;;;;;;;;;;;;;22.67;37.58;101148.31;4099290;29;19928;-63
2024/03/14 00:53:33;;;;;;;;;;;;;;;22.65;37.42;101146.59;4099255;28;20486;-64
2024/03/14 00:55:34;;;;;;;;;;;;;;;22.64;37.54;101144.91;4099568;28;20342;-64
2024/03/14 00:57:36;;;;;;;;;;;;;;;22.65;37.30;101140.41;4099557;28;19933;-63
2024/03/14 00:59:39;;;;;;;;;;;;;;;22.63;37.30;101139.66;4099479;28;20017;-63
2024/03/14 01:01:44;;;;;;;;;;;;;;;22.60;37.22;101137.22;4099197;29;19930;-64
2024/03/14 01:03:46;;;;;;;;;;;;;;;22.60;37.54;101134.53;4099584;28;19926;-63
2024/03/14 01:05:48;;;;;;;;;;;;;;;22.57;37.56;101137.47;4099416;29;19922;-63
2024/03/14 01:07:50;;;;;;;;;;;;;;;22.59;37.18;101130.16;4099151;29;19985;-63
2024/03/14 01:09:52;;;;;;;;;;;;;;;22.61;37.44;101134.44;4099189;28;20337;-63
2024/03/14 01:11:54;;;;;;;;;;;;;;;22.62;37.46;101129.91;4101523;28;19922;-63
2024/03/14 01:13:56;;;;;;;;;;;;;;;22.63;37.09;101121.75;4104415;28;19926;-63
2024/03/14 01:15:57;;;;;;;;;;;;;;;22.63;37.11;101126.25;4104619;28;20013;-63
2024/03/14 01:17:59;;;;;;;;;;;;;;;22.62;37.17;101124.56;4104500;28;20441;-63
2024/03/14 01:20:09;;;;;;;;;;;;;;;22.62;37.43;101122.72;4104770;29;19962;-65
2024/03/14 01:22:13;;;;;;;;;;;;;;;22.59;37.30;101122.97;4104348;28;19994;-65
2024/03/14 01:24:14;;;;;;;;;;;;;;;22.59;37.50;101119.41;4104409;28;20013;-64
2024/03/14 01:26:16;;;;;;;;;;;;;;;22.57;37.09;101116.03;4104616;28;19937;-64
2024/03/14 01:28:18;;;;;;;;;;;;;;;22.56;37.63;101112.47;4104613;28;19984;-65
2024/03/14 01:30:21;;;;;;;;;;;;;;;22.57;37.15;101113.34;4104560;28;19984;-65
2024/03/14 01:32:24;;;;;;;;;;;;;;;22.56;37.42;101112.47;4104758;28;19929;-64
2024/03/14 01:34:26;;;;;;;;;;;;;;;22.54;37.52;101106.41;4104510;28;20018;-64
2024/03/14 01:36:28;;;;;;;;;;;;;;;22.57;37.20;101108.00;4104297;28;20018;-64
2024/03/14 01:38:30;;;;;;;;;;;;;;;22.60;37.30;101105.91;4104567;28;19977;-64
2024/03/14 01:40:32;;;;;;;;;;;;;;;22.59;37.37;101104.22;4104599;28;20401;-64
2024/03/14 01:42:33;;;;;;;;;;;;;;;22.60;37.16;101103.25;4104360;28;19927;-64
2024/03/14 01:44:38;;;;;;;;;;;;;;;22.60;37.17;101107.72;4104346;28;19926;-64
2024/03/14 01:46:40;;;;;;;;;;;;;;;22.58;37.37;101107.03;4104422;29;19922;-64
2024/03/14 01:48:42;;;;;;;;;;;;;;;22.56;37.30;101101.75;4104424;28;20023;-64
2024/03/14 01:50:44;;;;;;;;;;;;;;;22.56;37.24;101103.59;4104211;28;19923;-64
2024/03/14 01:52:45;;;;;;;;;;;;;;;22.56;37.43;101092.88;4104326;28;20009;-64
2024/03/14 01:54:47;;;;;;;;;;;;;;;22.56;37.34;101096.41;4104490;28;20294;-64
2024/03/14 01:56:57;;;;;;;;;;;;;;;22.56;37.11;101092.88;4104385;28;19947;-65
2024/03/14 01:59:00;;;;;;;;;;;;;;;22.52;37.03;101086.03;4104257;28;19922;-62
2024/03/14 02:01:01;;;;;;;;;;;;;;;22.51;37.30;101087.88;4104394;28;19922;-64
2024/03/14 02:03:03;;;;;;;;;;;;;;;22.52;37.63;101083.38;4104293;28;19977;-64
2024/03/14 02:05:10;;;;;;;;;;;;;;;22.53;37.42;101085.06;4104214;28;19929;-64
2024/03/14 02:07:14;;;;;;;;;;;;;;;22.55;37.39;101083.97;4104313;28;19961;-65
2024/03/14 02:09:17;;;;;;;;;;;;;;;22.55;37.15;101083.13;4104292;28;19968;-64
2024/03/14 02:11:21;;;;;;;;;;;;;;;22.53;37.45;101077.91;4102649;28;20394;-64
2024/03/14 02:13:23;;;;;;;;;;;;;;;22.54;37.21;101078.75;4104027;28;20366;-64
2024/03/14 02:15:25;;;;;;;;;;;;;;;22.52;37.19;101067.28;4104240;28;20399;-64
2024/03/14 02:17:26;;;;;;;;;;;;;;;22.51;37.18;101058.41;4103013;29;19927;-65
2024/03/14 02:19:28;;;;;;;;;;;;;;;22.51;37.36;101065.59;4103842;28;20378;-62
2024/03/14 02:21:30;;;;;;;;;;;;;;;22.49;37.24;101061.22;4104271;28;20378;-65
2024/03/14 02:23:32;;;;;;;;;;;;;;;22.49;37.18;101060.34;4101593;28;19929;-65
2024/03/14 02:25:35;;;;;;;;;;;;;;;22.48;37.44;101058.66;4101745;28;19922;-64
2024/03/14 02:27:37;;;;;;;;;;;;;;;22.47;37.17;101057.78;4101758;29;19933;-64
2024/03/14 02:29:38;;;;;;;;;;;;;;;22.47;37.38;101051.59;4101495;29;20298;-64
2024/03/14 02:31:40;;;;;;;;;;;;;;;22.47;37.43;101047.06;4101721;28;20013;-65
2024/03/14 02:33:42;;;;;;;;;;;;;;;22.47;37.43;101052.44;4101265;28;20368;-64
2024/03/14 02:35:43;;;;;;;;;;;;;;;22.49;37.24;101047.81;4101646;28;19922;-64
2024/03/14 02:37:45;;;;;;;;;;;;;;;22.50;37.26;101045.97;4101605;28;19922;-65
2024/03/14 02:39:47;;;;;;;;;;;;;;;22.48;37.16;101038.06;4101515;28;19933;-64
2024/03/14 02:41:51;;;;;;;;;;;;;;;22.48;36.98;101035.38;4101441;28;19981;-64
2024/03/14 02:43:53;;;;;;;;;;;;;;;22.48;37.12;101034.53;4101505;28;20360;-64
2024/03/14 02:45:55;;;;;;;;;;;;;;;22.46;37.47;101034.66;4101551;29;20017;-65
2024/03/14 02:47:56;;;;;;;;;;;;;;;22.46;37.07;101031.97;4101227;28;20381;-64
2024/03/14 02:49:58;;;;;;;;;;;;;;;22.46;37.17;101033.81;4101315;28;19929;-64
2024/03/14 02:52:00;;;;;;;;;;;;;;;22.45;37.30;101030.25;4100180;29;19946;-65
2024/03/14 02:54:01;;;;;;;;;;;;;;;22.44;37.23;101031.25;4101405;28;19923;-64
2024/03/14 02:56:03;;;;;;;;;;;;;;;22.43;37.43;101036.72;4101224;28;19923;-64
2024/03/14 02:58:06;;;;;;;;;;;;;;;22.44;37.25;101031.25;4101384;28;20012;-64
2024/03/14 03:00:16;;;;;;;;;;;;;;;22.46;37.25;101023.94;4101206;28;19922;-64
2024/03/14 03:02:19;;;;;;;;;;;;;;;22.46;37.54;101025.75;4101067;28;19924;-63
2024/03/14 03:04:20;;;;;;;;;;;;;;;22.46;37.22;101023.94;4100705;29;19970;-65
2024/03/14 03:06:26;;;;;;;;;;;;;;;22.45;37.28;101018.69;4101030;28;19922;-63
2024/03/14 03:08:28;;;;;;;;;;;;;;;22.45;37.13;101016.84;4099892;29;19997;-65
2024/03/14 03:10:30;;;;;;;;;;;;;;;22.42;37.14;101017.13;4100800;28;19926;-65
2024/03/14 03:12:32;;;;;;;;;;;;;;;22.44;37.13;101011.63;4100847;28;20394;-65
2024/03/14 03:14:33;;;;;;;;;;;;;;;22.43;37.27;101012.59;4100887;29;20431;-65
2024/03/14 03:16:37;;;;;;;;;;;;;;;22.42;37.13;101011.75;4100906;28;19922;-65
2024/03/14 03:18:39;;;;;;;;;;;;;;;22.40;37.33;101013.72;4100438;28;19926;-62
2024/03/14 03:20:40;;;;;;;;;;;;;;;22.41;37.28;101011.91;4100936;29;19922;-62
2024/03/14 03:25:09;;;;;;;;;;;;;;;22.40;37.16;101004.84;4100885;28;20013;-64
2024/03/14 03:27:13;;;;;;;;;;;;;;;22.40;37.19;101000.31;4100852;29;19922;-64
2024/03/14 03:29:16;;;;;;;;;;;;;;;22.41;37.26;101004.69;4100512;29;19973;-65
2024/03/14 03:31:18;;;;;;;;;;;;;;;22.42;37.30;101001.03;4100467;29;19926;-64
2024/03/14 03:33:20;;;;;;;;;;;;;;;22.42;37.09;101003.72;4100319;29;19954;-65
2024/03/14 03:35:22;;;;;;;;;;;;;;;22.41;37.20;100993.97;4100553;28;20013;-64
2024/03/14 03:37:28;;;;;;;;;;;;;;;22.40;37.20;100999.47;4100513;29;19923;-64
2024/03/14 03:39:31;;;;;;;;;;;;;;;22.40;37.03;100997.63;4099438;29;20464;-64
2024/03/14 03:41:32;;;;;;;;;;;;;;;22.40;37.17;100996.78;4100523;28;19934;-64
2024/03/14 03:43:34;;;;;;;;;;;;;;;22.38;37.10;100988.84;4100645;28;19922;-64
2024/03/14 03:45:36;;;;;;;;;;;;;;;22.37;37.15;100987.16;4100511;28;19993;-64
2024/03/14 03:47:37;;;;;;;;;;;;;;;22.34;37.17;100990.91;4100226;28;20297;-64
2024/03/14 03:49:40;;;;;;;;;;;;;;;22.34;37.34;100987.38;4099246;29;19926;-64
2024/03/14 03:51:42;;;;;;;;;;;;;;;22.34;37.06;100990.91;4100353;28;19922;-64
2024/03/14 03:53:44;;;;;;;;;;;;;;;22.36;37.33;100982.75;4100453;28;20302;-65
2024/03/14 03:55:46;;;;;;;;;;;;;;;22.37;37.18;100980.91;4100409;28;19922;-65
2024/03/14 03:57:52;;;;;;;;;;;;;;;22.37;37.21;100984.47;4099154;28;19926;-64
2024/03/14 03:59:54;;;;;;;;;;;;;;;22.38;36.89;100986.19;4100078;28;19969;-64
2024/03/14 04:01:55;;;;;;;;;;;;;;;22.38;37.10;100990.66;4099758;28;19932;-65
2024/03/14 04:03:57;;;;;;;;;;;;;;;22.38;37.03;100979.94;4098869;29;20000;-64
2024/03/14 04:05:59;;;;;;;;;;;;;;;22.37;37.24;100986.28;4100371;28;19926;-64
2024/03/14 04:08:01;;;;;;;;;;;;;;;22.35;37.12;100981.06;4100117;28;20298;-64
2024/03/14 04:10:06;;;;;;;;;;;;;;;22.34;37.17;100977.50;4099908;28;19982;-64
2024/03/14 04:12:07;;;;;;;;;;;;;;;22.33;37.21;100974.94;4098590;29;20130;-64
2024/03/14 04:14:09;;;;;;;;;;;;;;;22.32;37.36;100975.94;4099853;29;19948;-64
2024/03/14 04:16:15;;;;;;;;;;;;;;;22.31;37.17;100974.25;4099815;28;19923;-64
2024/03/14 04:18:19;;;;;;;;;;;;;;;22.33;36.98;100972.28;4100004;28;19931;-65
2024/03/14 04:20:23;;;;;;;;;;;;;;;22.34;37.09;100968.63;4099752;29;20361;-64
2024/03/14 04:22:25;;;;;;;;;;;;;;;22.35;37.02;100973.00;4100086;28;19929;-64
2024/03/14 04:24:26;;;;;;;;;;;;;;;22.34;37.09;100965.94;4100228;28;19949;-64
2024/03/14 04:26:28;;;;;;;;;;;;;;;22.35;36.98;100967.66;4099927;28;19974;-64
2024/03/14 04:28:29;;;;;;;;;;;;;;;22.34;37.06;100957.91;4099694;28;20009;-64
2024/03/14 04:30:31;;;;;;;;;;;;;;;22.34;37.24;100957.91;4099371;28;20013;-64
2024/03/14 04:32:38;;;;;;;;;;;;;;;22.33;36.99;100954.38;4099560;28;19929;-64
2024/03/14 04:34:40;;;;;;;;;;;;;;;22.32;37.32;100955.34;4099749;28;19927;-64
2024/03/14 04:36:41;;;;;;;;;;;;;;;22.31;36.87;100956.34;4099792;28;19946;-64
2024/03/14 04:38:43;;;;;;;;;;;;;;;22.29;36.99;100947.56;4099591;28;19965;-64
2024/03/14 04:40:44;;;;;;;;;;;;;;;22.28;37.09;100945.00;4099419;28;20012;-65
2024/03/14 04:42:54;;;;;;;;;;;;;;;22.26;37.08;100937.09;4099856;28;19922;-64
2024/03/14 04:44:55;;;;;;;;;;;;;;;22.27;37.05;100943.31;4099532;28;19922;-65
2024/03/14 04:46:58;;;;;;;;;;;;;;;22.27;37.26;100936.13;4099163;28;19929;-64
2024/03/14 04:49:00;;;;;;;;;;;;;;;22.29;37.32;100944.03;4099734;28;20317;-64
2024/03/14 04:51:04;;;;;;;;;;;;;;;22.30;37.21;100943.06;4099550;28;19926;-64
2024/03/14 04:53:06;;;;;;;;;;;;;;;22.30;37.01;100935.88;4099703;28;20346;-64
2024/03/14 04:55:10;;;;;;;;;;;;;;;22.32;37.43;100938.41;4099686;29;19961;-64
2024/03/14 04:57:12;;;;;;;;;;;;;;;22.31;36.98;100936.75;4099539;29;19957;-64
2024/03/14 04:59:13;;;;;;;;;;;;;;;22.31;37.20;100936.75;4099304;28;20030;-64
2024/03/14 05:01:15;;;;;;;;;;;;;;;22.28;37.06;100934.28;4099515;28;20419;-64
2024/03/14 05:03:21;;;;;;;;;;;;;;;22.27;37.01;100940.63;4099519;28;19962;-64
2024/03/14 05:05:28;;;;;;;;;;;;;;;22.25;37.03;100932.72;4099259;28;19976;-64
2024/03/14 05:07:29;;;;;;;;;;;;;;;22.24;37.37;100933.69;4098127;29;19938;-64
2024/03/14 05:09:31;;;;;;;;;;;;;;;22.23;37.03;100934.66;4097983;29;19922;-65
2024/03/14 05:11:33;;;;;;;;;;;;;;;22.24;37.08;100933.69;4099234;28;20009;-64
2024/03/14 05:13:34;;;;;;;;;;;;;;;22.25;37.22;100934.53;4099032;29;19922;-64
2024/03/14 05:15:36;;;;;;;;;;;;;;;22.27;37.30;100936.13;4099415;28;19922;-65
2024/03/14 05:17:41;;;;;;;;;;;;;;;22.27;37.11;100935.28;4099207;28;19923;-63
2024/03/14 05:19:44;;;;;;;;;;;;;;;22.27;36.90;100936.13;4099384;28;20304;-62
2024/03/14 05:21:46;;;;;;;;;;;;;;;22.29;36.88;100938.69;4099345;28;19930;-63
2024/03/14 05:23:47;;;;;;;;;;;;;;;22.30;36.79;100932.34;4099181;28;19945;-64
2024/03/14 05:25:49;;;;;;;;;;;;;;;22.28;37.27;100935.13;4099297;29;20118;-64
2024/03/14 05:27:52;;;;;;;;;;;;;;;22.27;37.02;100930.78;4098906;28;19934;-65
2024/03/14 05:29:53;;;;;;;;;;;;;;;22.26;37.00;100929.06;4099333;28;19929;-65
2024/03/14 05:31:55;;;;;;;;;;;;;;;22.25;37.01;100932.72;4099423;28;20389;-65
2024/03/14 05:33:56;;;;;;;;;;;;;;;22.23;36.98;100937.34;4099319;29;19922;-65
2024/03/14 05:35:58;;;;;;;;;;;;;;;22.09;37.27;100914.38;4099168;29;19944;-65
2024/03/14 05:38:00;;;;;;;;;;;;;;;22.21;36.98;100941.13;4099313;28;19969;-65
2024/03/14 05:40:10;;;;;;;;;;;;;;;22.21;37.16;100935.78;4099379;28;19954;-64
2024/03/14 05:42:17;;;;;;;;;;;;;;;22.23;37.04;100936.50;4098743;29;20436;-64
2024/03/14 05:44:19;;;;;;;;;;;;;;;22.24;37.07;100938.22;4099092;29;19929;-65
2024/03/14 05:46:21;;;;;;;;;;;;;;;22.25;36.94;100934.53;4099081;28;19926;-65
2024/03/14 05:48:23;;;;;;;;;;;;;;;22.23;37.23;100939.19;4099312;28;20376;-64
2024/03/14 05:50:25;;;;;;;;;;;;;;;22.23;37.29;100944.53;4099006;29;19926;-64
2024/03/14 05:52:30;;;;;;;;;;;;;;;22.23;37.02;100939.19;4099300;28;20049;-64
2024/03/14 05:54:31;;;;;;;;;;;;;;;22.22;37.28;100935.63;4098980;28;19958;-64
2024/03/14 05:56:33;;;;;;;;;;;;;;;22.22;36.92;100937.47;4098769;28;19981;-64
2024/03/14 05:58:35;;;;;;;;;;;;;;;22.20;36.92;100928.69;4099585;28;19973;-64
2024/03/14 06:00:36;;;;;;;;;;;;;;;22.18;36.80;100928.84;4102154;28;19923;-64
2024/03/14 06:02:38;;;;;;;;;;;;;;;22.16;36.89;100926.28;4102152;28;20381;-64
2024/03/14 06:04:40;;;;;;;;;;;;;;;22.15;36.98;100924.59;4101993;28;19926;-63
2024/03/14 06:06:41;;;;;;;;;;;;;;;22.16;37.22;100923.63;4101924;28;19961;-63
2024/03/14 06:08:43;;;;;;;;;;;;;;;22.18;37.10;100918.97;4101961;28;20313;-64
2024/03/14 06:10:45;;;;;;;;;;;;;;;22.20;36.91;100924.22;4101604;28;19965;-63
2024/03/14 06:12:48;;;;;;;;;;;;;;;22.20;36.89;100926.91;4100068;29;19934;-65
2024/03/14 06:14:49;;;;;;;;;;;;;;;22.20;37.09;100928.69;4100877;29;19926;-63
2024/03/14 06:16:51;;;;;;;;;;;;;;;22.20;36.84;100920.66;4101868;28;20397;-64
2024/03/14 06:18:53;;;;;;;;;;;;;;;22.20;36.90;100928.69;4101723;28;20309;-65
2024/03/14 06:20:55;;;;;;;;;;;;;;;22.18;36.93;100918.13;4101847;28;19922;-65
2024/03/14 06:22:58;;;;;;;;;;;;;;;22.18;36.86;100932.34;4101539;28;19989;-64
2024/03/14 06:25:02;;;;;;;;;;;;;;;22.17;36.81;100925.28;4101934;28;19926;-64
2024/03/14 06:27:03;;;;;;;;;;;;;;;22.15;36.83;100923.72;4101511;28;20338;-64
2024/03/14 06:29:10;;;;;;;;;;;;;;;22.14;37.02;100930.03;4101569;28;20270;-64
2024/03/14 06:31:15;;;;;;;;;;;;;;;22.12;37.15;100916.78;4101687;28;19954;-64
2024/03/14 06:33:19;;;;;;;;;;;;;;;22.13;36.94;100915.81;4101637;28;20021;-65
2024/03/14 06:35:21;;;;;;;;;;;;;;;22.15;36.92;100916.56;4101620;28;19926;-64
2024/03/14 06:37:25;;;;;;;;;;;;;;;22.17;36.72;100916.41;4101572;28;19945;-64
2024/03/14 06:39:27;;;;;;;;;;;;;;;22.18;37.06;100902.88;4101496;28;19941;-64
2024/03/14 06:41:28;;;;;;;;;;;;;;;22.17;37.00;100911.91;4101253;28;19929;-64
2024/03/14 06:43:30;;;;;;;;;;;;;;;22.18;36.88;100910.94;4101468;28;19922;-64
2024/03/14 06:45:32;;;;;;;;;;;;;;;22.18;36.91;100910.09;4101278;28;19926;-64
2024/03/14 06:47:34;;;;;;;;;;;;;;;22.17;36.81;100911.06;4101378;28;19922;-66
2024/03/14 06:49:42;;;;;;;;;;;;;;;22.16;37.02;100909.34;4101308;28;20016;-64
2024/03/14 06:51:43;;;;;;;;;;;;;;;22.14;37.05;100911.28;4101325;28;20365;-63
2024/03/14 06:53:45;;;;;;;;;;;;;;;22.13;36.80;100907.78;4101191;29;20070;-64
2024/03/14 06:55:46;;;;;;;;;;;;;;;22.12;36.94;100900.72;4100960;28;19926;-64
2024/03/14 06:57:51;;;;;;;;;;;;;;;22.12;36.97;100902.56;4101247;28;19922;-64
2024/03/14 06:59:52;;;;;;;;;;;;;;;22.12;36.72;100902.56;4101361;28;20378;-64
2024/03/14 07:01:55;;;;;;;;;;;;;;;22.12;36.81;100899.88;4101300;28;19932;-64
2024/03/14 07:03:58;;;;;;;;;;;;;;;22.16;36.93;100895.97;4101003;28;19977;-64
2024/03/14 07:06:00;;;;;;;;;;;;;;;22.16;36.85;100893.28;4100966;28;20316;-64
2024/03/14 07:08:03;;;;;;;;;;;;;;;22.16;37.06;100891.47;4099942;29;19932;-63
2024/03/14 07:10:08;;;;;;;;;;;;;;;22.16;36.98;100893.28;4100206;28;19923;-64
2024/03/14 07:12:10;;;;;;;;;;;;;;;22.15;36.73;100895.13;4100944;29;20034;-65
2024/03/14 07:14:12;;;;;;;;;;;;;;;22.14;36.71;100893.41;4101088;28;19977;-64
2024/03/14 07:16:13;;;;;;;;;;;;;;;22.15;36.93;100891.56;4099423;29;19922;-65
2024/03/14 07:18:16;;;;;;;;;;;;;;;22.18;36.68;100899.38;4100924;28;19964;-64
2024/03/14 07:20:24;;;;;;;;;;;;;;;22.21;36.85;100895.59;4100695;28;20012;-64
2024/03/14 07:22:27;;;;;;;;;;;;;;;22.23;36.91;100899.00;4099656;29;19940;-64
2024/03/14 07:24:29;;;;;;;;;;;;;;;22.23;36.59;100899.00;4100564;28;20398;-64
2024/03/14 07:26:36;;;;;;;;;;;;;;;22.24;36.40;100898.88;4100692;29;20394;-64
2024/03/14 07:28:38;;;;;;;;;;;;;;;22.27;36.67;100898.63;4100820;28;19923;-64
2024/03/14 07:30:41;;;;;;;;;;;;;;;22.29;36.51;100899.34;4100793;28;19928;-64
2024/03/14 07:32:43;;;;;;;;;;;;;;;22.33;36.62;100897.25;4099608;29;20301;-64
2024/03/14 07:34:45;;;;;;;;;;;;;;;22.34;36.67;100898.97;4100769;28;19934;-64
2024/03/14 07:36:47;;;;;;;;;;;;;;;22.34;36.58;100893.59;4100724;29;19946;-64
2024/03/14 07:38:50;;;;;;;;;;;;;;;22.34;36.43;100910.50;4100629;29;20309;-64
2024/03/14 07:40:51;;;;;;;;;;;;;;;22.33;36.49;100903.47;4100568;28;19966;-64
2024/03/14 07:42:53;;;;;;;;;;;;;;;22.31;36.62;100896.53;4100381;28;19922;-64
2024/03/14 07:44:54;;;;;;;;;;;;;;;22.29;36.75;100899.34;4100475;28;19962;-65
2024/03/14 07:46:56;;;;;;;;;;;;;;;22.29;36.71;100893.97;4100535;28;19944;-64
2024/03/14 07:48:58;;;;;;;;;;;;;;;22.27;36.49;100892.41;4100460;28;19929;-64
2024/03/14 07:51:01;;;;;;;;;;;;;;;22.28;36.82;100889.59;4100544;28;20329;-64
2024/03/14 07:53:03;;;;;;;;;;;;;;;22.30;36.64;100892.16;4100043;28;19922;-64
2024/03/14 07:55:07;;;;;;;;;;;;;;;22.33;36.35;100892.75;4100183;29;19928;-64
2024/03/14 07:57:09;;;;;;;;;;;;;;;22.36;36.65;100893.47;4100335;28;19926;-64
2024/03/14 07:59:10;;;;;;;;;;;;;;;22.36;36.53;100891.66;4100340;28;19958;-64
2024/03/14 08:01:15;;;;;;;;;;;;;;;22.37;36.67;100893.34;4100106;28;19926;-64
2024/03/14 08:03:17;;;;;;;;;;;;;;;22.38;36.48;100897.75;4100361;29;20404;-64
2024/03/14 08:05:18;;;;;;;;;;;;;;;22.38;36.47;100889.69;4100125;29;20360;-64
2024/03/14 08:07:22;;;;;;;;;;;;;;;22.40;36.45;100894.97;4099595;28;19977;-63
2024/03/14 08:09:26;;;;;;;;;;;;;;;22.40;36.38;100895.78;4099874;29;19922;-64
2024/03/14 08:11:29;;;;;;;;;;;;;;;22.38;36.42;100892.38;4099955;28;19929;-64
2024/03/14 08:13:33;;;;;;;;;;;;;;;22.38;36.36;100891.50;4100225;28;19923;-64
2024/03/14 08:15:41;;;;;;;;;;;;;;;22.39;36.84;100898.63;4083030;29;20014;-63
2024/03/14 08:17:44;;;;;;;;;;;;;;;22.38;36.57;100892.38;4100213;28;20267;-63
2024/03/14 08:19:46;;;;;;;;;;;;;;;22.39;36.61;100895.94;4099988;28;20414;-64
2024/03/14 08:21:48;;;;;;;;;;;;;;;22.37;36.36;100892.47;4098838;28;19923;-64
2024/03/14 08:23:51;;;;;;;;;;;;;;;22.38;36.36;100886.16;4100112;28;19969;-64
2024/03/14 08:25:53;;;;;;;;;;;;;;;22.38;36.75;100884.34;4099781;29;20047;-64
2024/03/14 08:27:54;;;;;;;;;;;;;;;22.38;36.64;100884.34;4100126;29;19922;-64
2024/03/14 08:29:56;;;;;;;;;;;;;;;22.39;36.63;100885.22;4099968;29;19923;-64
2024/03/14 08:31:59;;;;;;;;;;;;;;;22.39;36.51;100885.22;4099682;28;19922;-64
2024/03/14 08:34:00;;;;;;;;;;;;;;;22.38;36.52;100880.78;4099874;28;19965;-64
2024/03/14 08:36:06;;;;;;;;;;;;;;;22.40;36.47;100877.03;4099578;28;19922;-64
2024/03/14 08:38:09;;;;;;;;;;;;;;;22.38;36.53;100880.78;4099933;28;19929;-64
2024/03/14 08:40:11;;;;;;;;;;;;;;;22.37;36.79;100871.06;4099442;28;19929;-64
2024/03/14 08:42:23;;;;;;;;;;;;;;;22.37;36.82;100876.41;4099677;29;20433;-64
2024/03/14 08:44:28;;;;;;;;;;;;;;;22.38;36.82;100878.97;4099843;28;19923;-65
2024/03/14 08:46:29;;;;;;;;;;;;;;;22.39;36.64;100872.66;4099708;28;19927;-64
2024/03/14 08:48:31;;;;;;;;;;;;;;;22.41;36.45;100878.75;4099672;28;20034;-63
2024/03/14 08:50:36;;;;;;;;;;;;;;;22.43;36.43;100873.25;4099105;28;19930;-65
2024/03/14 08:52:38;;;;;;;;;;;;;;;22.45;36.74;100876.66;4099516;29;20013;-64
2024/03/14 08:54:45;;;;;;;;;;;;;;;22.44;36.57;100870.47;4099473;28;19922;-64
2024/03/14 08:56:46;;;;;;;;;;;;;;;22.44;36.79;100864.22;4099535;28;19929;-64
2024/03/14 08:58:56;;;;;;;;;;;;;;;22.42;36.88;100869.72;4099618;28;19924;-64
2024/03/14 09:00:59;;;;;;;;;;;;;;;22.43;36.70;100874.13;4099503;28;20474;-65
2024/03/14 09:03:01;;;;;;;;;;;;;;;22.42;36.84;100864.38;4099581;28;19977;-64
2024/03/14 09:05:05;;;;;;;;;;;;;;;22.41;36.50;100865.34;4099160;28;19926;-64
2024/03/14 09:07:07;;;;;;;;;;;;;;;22.41;36.92;100865.34;4099443;29;19929;-64
2024/03/14 09:09:23;;;;;;;;;;;;;;;22.40;36.66;100866.31;4099249;28;19937;-64
2024/03/14 09:11:27;;;;;;;;;;;;;;;22.39;36.58;100864.63;4099531;28;20036;-64
2024/03/14 09:13:30;;;;;;;;;;;;;;;22.40;36.87;100863.63;4099200;28;20386;-64
2024/03/14 09:15:33;;;;;;;;;;;;;;;22.41;36.65;100865.34;4099377;29;19934;-65
2024/03/14 09:17:35;;;;;;;;;;;;;;;22.42;37.01;100853.66;4099034;28;19965;-65
2024/03/14 09:19:37;;;;;;;;;;;;;;;22.44;36.66;100857.06;4099153;28;19929;-64
2024/03/14 09:21:39;;;;;;;;;;;;;;;22.45;36.93;100858.75;4099432;28;19923;-64
2024/03/14 09:23:41;;;;;;;;;;;;;;;22.45;36.85;100861.41;4099206;29;19923;-64
2024/03/14 09:25:44;;;;;;;;;;;;;;;22.45;36.55;100855.22;4099140;28;20325;-64
2024/03/14 09:27:45;;;;;;;;;;;;;;;22.44;36.85;100865.09;4099440;28;20270;-65
2024/03/14 09:29:47;;;;;;;;;;;;;;;22.46;36.82;100851.56;4099205;28;19923;-64
2024/03/14 09:31:49;;;;;;;;;;;;;;;22.45;36.69;100858.75;4099323;28;20453;-64
2024/03/14 09:33:51;;;;;;;;;;;;;;;22.44;36.67;100848.16;4101981;28;19922;-64
2024/03/14 09:35:53;;;;;;;;;;;;;;;22.45;36.88;100855.22;4102161;28;19931;-64
2024/03/14 09:37:55;;;;;;;;;;;;;;;22.45;36.88;100852.53;4102731;28;19922;-64
2024/03/14 09:39:58;;;;;;;;;;;;;;;22.44;36.92;100840.97;4101193;29;20002;-63
2024/03/14 09:41:59;;;;;;;;;;;;;;;22.45;36.88;100856.06;4102272;28;19993;-63
2024/03/14 09:44:03;;;;;;;;;;;;;;;22.48;36.50;100845.09;4102252;28;20000;-63
2024/03/14 09:46:07;;;;;;;;;;;;;;;22.50;36.77;100847.63;4102325;28;19922;-63
2024/03/14 09:48:12;;;;;;;;;;;;;;;22.49;36.69;100845.94;4100976;29;19922;-63
2024/03/14 09:50:18;;;;;;;;;;;;;;;22.52;36.85;100842.13;4102082;28;20283;-63
2024/03/14 09:52:20;;;;;;;;;;;;;;;22.52;36.66;100834.97;4102434;28;20420;-63
2024/03/14 09:54:26;;;;;;;;;;;;;;;22.53;36.85;100841.16;4102184;28;19923;-63
2024/03/14 09:56:27;;;;;;;;;;;;;;;22.53;36.75;100841.16;4102015;28;19923;-63
2024/03/14 09:58:29;;;;;;;;;;;;;;;22.53;36.67;100842.03;4100342;28;20373;-63
2024/03/14 10:00:31;;;;;;;;;;;;;;;22.54;36.58;100834.81;4099840;29;19922;-63
2024/03/14 10:02:33;;;;;;;;;;;;;;;22.54;36.75;100838.38;4105053;28;19978;-63
2024/03/14 10:04:35;;;;;;;;;;;;;;;22.54;36.59;100835.69;4115751;28;19973;-64
2024/03/14 10:06:43;;;;;;;;;;;;;;;22.55;36.87;100831.16;4115705;28;19922;-64
2024/03/14 10:08:46;;;;;;;;;;;;;;;22.56;36.58;100822.16;4117539;28;20009;-62
2024/03/14 10:10:49;;;;;;;;;;;;;;;22.58;36.54;100818.34;4117526;28;20424;-62
2024/03/14 10:12:51;;;;;;;;;;;;;;;22.59;36.77;100827.22;4109908;28;19938;-61
2024/03/14 10:14:58;;;;;;;;;;;;;;;22.60;36.88;100820.91;4096196;28;19929;-63
2024/03/14 10:17:00;;;;;;;;;;;;;;;22.52;36.91;100804.63;4100307;28;19923;-62
2024/03/14 10:19:02;;;;;;;;;;;;;;;22.64;37.77;100812.47;4097607;28;20310;-63
2024/03/14 10:21:05;;;;;;;;;;;;;;;22.66;37.73;100809.66;4090443;29;20382;-63
2024/03/14 10:23:07;;;;;;;;;;;;;;;22.71;37.34;100811.94;4093057;28;19949;-64
2024/03/14 10:25:09;;;;;;;;;;;;;;;22.72;37.56;100809.13;4098411;29;19960;-65
2024/03/14 10:27:11;;;;;;;;;;;;;;;22.74;37.40;100807.16;4099254;28;19926;-63
2024/03/14 10:29:16;;;;;;;;;;;;;;;22.77;37.48;100808.72;4101116;28;19982;-64
2024/03/14 10:31:18;;;;;;;;;;;;;;;22.84;37.06;100803.72;4102121;28;19922;-65